sensor_id;sensor_type;location;lat;lon;timestamp;P1;durP1;ratioP1;P2;durP2;ratioP2
18568;SDS011;14780;48.316;-1.050;2023-09-30T00:00:24;4.18;;;2.30;;
18568;SDS011;14780;48.316;-1.050;2023-09-30T00:03:10;3.20;;;2.22;;
18568;SDS011;14780;48.316;-1.050;2023-09-30T00:05:55;3.33;;;1.92;;
18568;SDS011;14780;48.316;-1.050;2023-09-30T00:08:39;5.05;;;2.60;;
18568;SDS011;14780;48.316;-1.050;2023-09-30T00:11:25;3.40;;;2.28;;
18568;SDS011;14780;48.316;-1.050;2023-09-30T00:14:10;3.88;;;2.10;;
18568;SDS011;14780;48.316;-1.050;2023-09-30T00:16:54;4.65;;;2.40;;
18568;SDS011;14780;48.316;-1.050;2023-09-30T00:19:39;4.28;;;2.28;;
18568;SDS011;14780;48.316;-1.050;2023-09-30T00:22:24;4.88;;;2.00;;
18568;SDS011;14780;48.316;-1.050;2023-09-30T00:25:09;4.28;;;2.50;;
18568;SDS011;14780;48.316;-1.050;2023-09-30T00:27:54;4.57;;;2.22;;
18568;SDS011;14780;48.316;-1.050;2023-09-30T00:30:38;5.50;;;2.20;;
18568;SDS011;14780;48.316;-1.050;2023-09-30T00:33:23;4.97;;;2.40;;
18568;SDS011;14780;48.316;-1.050;2023-09-30T00:36:08;5.15;;;2.30;;
18568;SDS011;14780;48.316;-1.050;2023-09-30T00:38:54;3.40;;;2.10;;
18568;SDS011;14780;48.316;-1.050;2023-09-30T00:41:39;4.68;;;2.25;;
18568;SDS011;14780;48.316;-1.050;2023-09-30T00:44:26;4.60;;;2.20;;
18568;SDS011;14780;48.316;-1.050;2023-09-30T00:47:12;4.28;;;2.35;;
18568;SDS011;14780;48.316;-1.050;2023-09-30T00:49:58;6.65;;;2.10;;
18568;SDS011;14780;48.316;-1.050;2023-09-30T00:52:43;3.70;;;2.10;;
18568;SDS011;14780;48.316;-1.050;2023-09-30T00:55:30;3.28;;;1.90;;
18568;SDS011;14780;48.316;-1.050;2023-09-30T00:58:16;3.97;;;1.87;;
18568;SDS011;14780;48.316;-1.050;2023-09-30T01:01:01;3.42;;;2.10;;
18568;SDS011;14780;48.316;-1.050;2023-09-30T01:03:46;4.32;;;1.90;;
18568;SDS011;14780;48.316;-1.050;2023-09-30T01:06:31;2.83;;;1.83;;
18568;SDS011;14780;48.316;-1.050;2023-09-30T01:09:17;5.50;;;2.40;;
18568;SDS011;14780;48.316;-1.050;2023-09-30T01:12:03;3.58;;;2.00;;
18568;SDS011;14780;48.316;-1.050;2023-09-30T01:14:48;3.88;;;2.05;;
18568;SDS011;14780;48.316;-1.050;2023-09-30T01:17:33;3.75;;;2.15;;
18568;SDS011;14780;48.316;-1.050;2023-09-30T01:20:18;4.18;;;2.00;;
18568;SDS011;14780;48.316;-1.050;2023-09-30T01:23:06;3.78;;;2.10;;
18568;SDS011;14780;48.316;-1.050;2023-09-30T01:25:50;4.75;;;2.30;;
18568;SDS011;14780;48.316;-1.050;2023-09-30T01:28:35;3.83;;;2.10;;
18568;SDS011;14780;48.316;-1.050;2023-09-30T01:31:20;2.92;;;2.03;;
18568;SDS011;14780;48.316;-1.050;2023-09-30T01:34:05;4.30;;;2.13;;
18568;SDS011;14780;48.316;-1.050;2023-09-30T01:36:51;3.38;;;1.85;;
18568;SDS011;14780;48.316;-1.050;2023-09-30T01:39:35;2.80;;;1.80;;
18568;SDS011;14780;48.316;-1.050;2023-09-30T01:42:20;4.40;;;2.50;;
18568;SDS011;14780;48.316;-1.050;2023-09-30T01:45:05;4.13;;;2.20;;
18568;SDS011;14780;48.316;-1.050;2023-09-30T01:47:50;3.03;;;1.98;;
18568;SDS011;14780;48.316;-1.050;2023-09-30T01:50:34;3.40;;;2.00;;
18568;SDS011;14780;48.316;-1.050;2023-09-30T01:53:19;7.30;;;2.30;;
18568;SDS011;14780;48.316;-1.050;2023-09-30T01:56:04;7.72;;;2.28;;
18568;SDS011;14780;48.316;-1.050;2023-09-30T01:58:49;3.25;;;1.92;;
18568;SDS011;14780;48.316;-1.050;2023-09-30T02:01:34;3.90;;;1.85;;
18568;SDS011;14780;48.316;-1.050;2023-09-30T02:04:19;2.70;;;1.70;;
18568;SDS011;14780;48.316;-1.050;2023-09-30T02:07:04;3.58;;;2.03;;
18568;SDS011;14780;48.316;-1.050;2023-09-30T02:09:48;2.83;;;1.90;;
18568;SDS011;14780;48.316;-1.050;2023-09-30T02:12:33;4.20;;;1.92;;
18568;SDS011;14780;48.316;-1.050;2023-09-30T02:15:19;3.40;;;2.10;;
18568;SDS011;14780;48.316;-1.050;2023-09-30T02:18:04;3.33;;;2.00;;
18568;SDS011;14780;48.316;-1.050;2023-09-30T02:20:49;3.15;;;1.80;;
18568;SDS011;14780;48.316;-1.050;2023-09-30T02:23:33;3.63;;;2.00;;
18568;SDS011;14780;48.316;-1.050;2023-09-30T02:26:19;4.32;;;2.22;;
18568;SDS011;14780;48.316;-1.050;2023-09-30T02:29:05;2.35;;;1.60;;
18568;SDS011;14780;48.316;-1.050;2023-09-30T02:31:53;3.40;;;2.03;;
18568;SDS011;14780;48.316;-1.050;2023-09-30T02:34:38;3.65;;;2.00;;
18568;SDS011;14780;48.316;-1.050;2023-09-30T02:37:23;2.85;;;1.73;;
18568;SDS011;14780;48.316;-1.050;2023-09-30T02:40:08;3.15;;;1.80;;
18568;SDS011;14780;48.316;-1.050;2023-09-30T02:42:54;2.38;;;1.60;;
18568;SDS011;14780;48.316;-1.050;2023-09-30T02:45:39;3.72;;;1.80;;
18568;SDS011;14780;48.316;-1.050;2023-09-30T02:48:24;4.30;;;2.00;;
18568;SDS011;14780;48.316;-1.050;2023-09-30T02:51:09;3.80;;;2.10;;
18568;SDS011;14780;48.316;-1.050;2023-09-30T02:53:55;3.45;;;2.10;;
18568;SDS011;14780;48.316;-1.050;2023-09-30T02:56:39;3.65;;;2.10;;
18568;SDS011;14780;48.316;-1.050;2023-09-30T02:59:24;3.28;;;1.98;;
18568;SDS011;14780;48.316;-1.050;2023-09-30T03:02:11;3.00;;;1.95;;
18568;SDS011;14780;48.316;-1.050;2023-09-30T03:04:55;3.40;;;1.90;;
18568;SDS011;14780;48.316;-1.050;2023-09-30T03:07:42;2.78;;;1.80;;
18568;SDS011;14780;48.316;-1.050;2023-09-30T03:10:27;3.83;;;2.23;;
18568;SDS011;14780;48.316;-1.050;2023-09-30T03:13:12;4.53;;;1.95;;
18568;SDS011;14780;48.316;-1.050;2023-09-30T03:15:57;3.38;;;1.80;;
18568;SDS011;14780;48.316;-1.050;2023-09-30T03:18:41;4.57;;;2.15;;
18568;SDS011;14780;48.316;-1.050;2023-09-30T03:21:27;3.83;;;1.83;;
18568;SDS011;14780;48.316;-1.050;2023-09-30T03:24:12;2.97;;;1.85;;
18568;SDS011;14780;48.316;-1.050;2023-09-30T03:26:56;4.90;;;1.88;;
18568;SDS011;14780;48.316;-1.050;2023-09-30T03:29:42;3.13;;;1.85;;
18568;SDS011;14780;48.316;-1.050;2023-09-30T03:32:26;3.53;;;1.90;;
18568;SDS011;14780;48.316;-1.050;2023-09-30T03:35:13;4.10;;;1.92;;
18568;SDS011;14780;48.316;-1.050;2023-09-30T03:38:01;2.90;;;1.90;;
18568;SDS011;14780;48.316;-1.050;2023-09-30T03:40:46;6.07;;;2.08;;
18568;SDS011;14780;48.316;-1.050;2023-09-30T03:43:31;3.47;;;1.90;;
18568;SDS011;14780;48.316;-1.050;2023-09-30T03:46:18;3.53;;;2.00;;
18568;SDS011;14780;48.316;-1.050;2023-09-30T03:49:03;3.25;;;1.83;;
18568;SDS011;14780;48.316;-1.050;2023-09-30T03:51:48;4.10;;;1.92;;
18568;SDS011;14780;48.316;-1.050;2023-09-30T03:54:34;3.17;;;2.00;;
18568;SDS011;14780;48.316;-1.050;2023-09-30T03:57:19;2.90;;;2.03;;
18568;SDS011;14780;48.316;-1.050;2023-09-30T04:00:05;3.15;;;1.95;;
18568;SDS011;14780;48.316;-1.050;2023-09-30T04:02:51;2.97;;;1.87;;
18568;SDS011;14780;48.316;-1.050;2023-09-30T04:05:42;3.33;;;1.77;;
18568;SDS011;14780;48.316;-1.050;2023-09-30T04:08:26;3.88;;;1.90;;
18568;SDS011;14780;48.316;-1.050;2023-09-30T04:11:12;3.30;;;1.80;;
18568;SDS011;14780;48.316;-1.050;2023-09-30T04:14:02;3.90;;;2.13;;
18568;SDS011;14780;48.316;-1.050;2023-09-30T04:16:51;3.33;;;1.90;;
18568;SDS011;14780;48.316;-1.050;2023-09-30T04:19:37;3.72;;;2.13;;
18568;SDS011;14780;48.316;-1.050;2023-09-30T04:22:22;2.83;;;1.70;;
18568;SDS011;14780;48.316;-1.050;2023-09-30T04:25:09;2.55;;;1.58;;
18568;SDS011;14780;48.316;-1.050;2023-09-30T04:27:54;5.88;;;2.10;;
18568;SDS011;14780;48.316;-1.050;2023-09-30T04:30:38;2.97;;;2.03;;
18568;SDS011;14780;48.316;-1.050;2023-09-30T04:33:24;2.88;;;1.83;;
18568;SDS011;14780;48.316;-1.050;2023-09-30T04:36:10;3.53;;;2.13;;
18568;SDS011;14780;48.316;-1.050;2023-09-30T04:38:54;2.65;;;1.58;;
18568;SDS011;14780;48.316;-1.050;2023-09-30T04:41:39;3.22;;;1.92;;
18568;SDS011;14780;48.316;-1.050;2023-09-30T04:44:24;3.65;;;1.67;;
18568;SDS011;14780;48.316;-1.050;2023-09-30T04:47:12;3.10;;;1.90;;
18568;SDS011;14780;48.316;-1.050;2023-09-30T04:49:56;3.53;;;2.00;;
18568;SDS011;14780;48.316;-1.050;2023-09-30T04:52:42;2.63;;;1.77;;
18568;SDS011;14780;48.316;-1.050;2023-09-30T04:55:28;3.85;;;1.98;;
18568;SDS011;14780;48.316;-1.050;2023-09-30T04:58:13;3.13;;;1.77;;
18568;SDS011;14780;48.316;-1.050;2023-09-30T05:00:58;3.40;;;2.10;;
18568;SDS011;14780;48.316;-1.050;2023-09-30T05:03:42;2.70;;;1.75;;
18568;SDS011;14780;48.316;-1.050;2023-09-30T05:06:27;2.95;;;1.90;;
18568;SDS011;14780;48.316;-1.050;2023-09-30T05:09:12;3.20;;;1.87;;
18568;SDS011;14780;48.316;-1.050;2023-09-30T05:11:57;2.95;;;1.90;;
18568;SDS011;14780;48.316;-1.050;2023-09-30T05:14:41;2.40;;;1.70;;
18568;SDS011;14780;48.316;-1.050;2023-09-30T05:17:27;2.67;;;1.75;;
18568;SDS011;14780;48.316;-1.050;2023-09-30T05:20:12;4.28;;;2.00;;
18568;SDS011;14780;48.316;-1.050;2023-09-30T05:23:00;3.65;;;2.05;;
18568;SDS011;14780;48.316;-1.050;2023-09-30T05:25:46;3.75;;;2.03;;
18568;SDS011;14780;48.316;-1.050;2023-09-30T05:28:32;3.00;;;1.77;;
18568;SDS011;14780;48.316;-1.050;2023-09-30T05:31:17;3.65;;;1.80;;
18568;SDS011;14780;48.316;-1.050;2023-09-30T05:34:01;3.72;;;2.30;;
18568;SDS011;14780;48.316;-1.050;2023-09-30T05:36:46;3.80;;;1.85;;
18568;SDS011;14780;48.316;-1.050;2023-09-30T05:39:30;3.50;;;2.00;;
18568;SDS011;14780;48.316;-1.050;2023-09-30T05:42:15;3.97;;;2.00;;
18568;SDS011;14780;48.316;-1.050;2023-09-30T05:45:02;4.10;;;1.95;;
18568;SDS011;14780;48.316;-1.050;2023-09-30T05:47:48;3.73;;;2.17;;
18568;SDS011;14780;48.316;-1.050;2023-09-30T05:50:36;3.53;;;1.88;;
18568;SDS011;14780;48.316;-1.050;2023-09-30T05:53:22;4.53;;;2.10;;
18568;SDS011;14780;48.316;-1.050;2023-09-30T05:56:08;3.00;;;1.75;;
18568;SDS011;14780;48.316;-1.050;2023-09-30T05:58:54;4.17;;;2.00;;
18568;SDS011;14780;48.316;-1.050;2023-09-30T06:01:39;3.28;;;2.10;;
18568;SDS011;14780;48.316;-1.050;2023-09-30T06:04:26;2.97;;;1.90;;
18568;SDS011;14780;48.316;-1.050;2023-09-30T06:07:11;3.20;;;2.00;;
18568;SDS011;14780;48.316;-1.050;2023-09-30T06:09:57;4.03;;;2.00;;
18568;SDS011;14780;48.316;-1.050;2023-09-30T06:12:41;3.15;;;1.70;;
18568;SDS011;14780;48.316;-1.050;2023-09-30T06:15:26;4.25;;;2.00;;
18568;SDS011;14780;48.316;-1.050;2023-09-30T06:18:12;3.40;;;1.95;;
18568;SDS011;14780;48.316;-1.050;2023-09-30T06:20:58;3.13;;;1.95;;
18568;SDS011;14780;48.316;-1.050;2023-09-30T06:23:43;4.17;;;1.90;;
18568;SDS011;14780;48.316;-1.050;2023-09-30T06:26:27;3.58;;;1.90;;
18568;SDS011;14780;48.316;-1.050;2023-09-30T06:29:13;3.93;;;2.07;;
18568;SDS011;14780;48.316;-1.050;2023-09-30T06:31:58;3.30;;;1.92;;
18568;SDS011;14780;48.316;-1.050;2023-09-30T06:34:42;4.20;;;2.15;;
18568;SDS011;14780;48.316;-1.050;2023-09-30T06:37:27;4.60;;;2.10;;
18568;SDS011;14780;48.316;-1.050;2023-09-30T06:40:13;4.47;;;2.03;;
18568;SDS011;14780;48.316;-1.050;2023-09-30T06:42:58;4.07;;;2.00;;
18568;SDS011;14780;48.316;-1.050;2023-09-30T06:45:44;4.13;;;1.90;;
18568;SDS011;14780;48.316;-1.050;2023-09-30T06:48:30;3.25;;;1.90;;
18568;SDS011;14780;48.316;-1.050;2023-09-30T06:51:15;4.38;;;1.85;;
18568;SDS011;14780;48.316;-1.050;2023-09-30T06:54:00;6.43;;;2.10;;
18568;SDS011;14780;48.316;-1.050;2023-09-30T06:56:50;3.60;;;2.10;;
18568;SDS011;14780;48.316;-1.050;2023-09-30T06:59:34;5.25;;;2.20;;
18568;SDS011;14780;48.316;-1.050;2023-09-30T07:02:19;4.47;;;2.47;;
18568;SDS011;14780;48.316;-1.050;2023-09-30T07:05:11;5.28;;;2.30;;
18568;SDS011;14780;48.316;-1.050;2023-09-30T07:07:56;5.22;;;2.35;;
18568;SDS011;14780;48.316;-1.050;2023-09-30T07:10:41;5.93;;;2.38;;
18568;SDS011;14780;48.316;-1.050;2023-09-30T07:13:27;4.90;;;2.33;;
18568;SDS011;14780;48.316;-1.050;2023-09-30T07:16:12;5.93;;;2.47;;
18568;SDS011;14780;48.316;-1.050;2023-09-30T07:18:56;5.97;;;2.60;;
18568;SDS011;14780;48.316;-1.050;2023-09-30T07:21:41;6.03;;;2.63;;
18568;SDS011;14780;48.316;-1.050;2023-09-30T07:24:26;8.63;;;2.53;;
18568;SDS011;14780;48.316;-1.050;2023-09-30T07:27:11;7.90;;;2.88;;
18568;SDS011;14780;48.316;-1.050;2023-09-30T07:29:55;8.13;;;3.23;;
18568;SDS011;14780;48.316;-1.050;2023-09-30T07:32:43;9.65;;;3.58;;
18568;SDS011;14780;48.316;-1.050;2023-09-30T07:35:28;9.57;;;3.20;;
18568;SDS011;14780;48.316;-1.050;2023-09-30T07:38:13;11.35;;;3.60;;
18568;SDS011;14780;48.316;-1.050;2023-09-30T07:40:59;11.60;;;3.80;;
18568;SDS011;14780;48.316;-1.050;2023-09-30T07:43:45;9.18;;;3.50;;
18568;SDS011;14780;48.316;-1.050;2023-09-30T07:46:29;10.02;;;3.72;;
18568;SDS011;14780;48.316;-1.050;2023-09-30T07:49:14;13.68;;;4.00;;
18568;SDS011;14780;48.316;-1.050;2023-09-30T07:51:59;10.48;;;3.70;;
18568;SDS011;14780;48.316;-1.050;2023-09-30T07:54:44;13.23;;;4.60;;
18568;SDS011;14780;48.316;-1.050;2023-09-30T07:57:29;9.43;;;3.78;;
18568;SDS011;14780;48.316;-1.050;2023-09-30T08:00:13;10.07;;;3.90;;
18568;SDS011;14780;48.316;-1.050;2023-09-30T08:02:58;8.75;;;3.55;;
18568;SDS011;14780;48.316;-1.050;2023-09-30T08:05:44;9.63;;;4.28;;
18568;SDS011;14780;48.316;-1.050;2023-09-30T08:08:30;9.13;;;3.97;;
18568;SDS011;14780;48.316;-1.050;2023-09-30T08:11:15;11.18;;;4.28;;
18568;SDS011;14780;48.316;-1.050;2023-09-30T08:14:01;9.10;;;4.05;;
18568;SDS011;14780;48.316;-1.050;2023-09-30T08:16:49;10.23;;;4.10;;
18568;SDS011;14780;48.316;-1.050;2023-09-30T08:19:34;10.23;;;4.20;;
18568;SDS011;14780;48.316;-1.050;2023-09-30T08:22:19;11.95;;;4.20;;
18568;SDS011;14780;48.316;-1.050;2023-09-30T08:25:05;8.30;;;3.95;;
18568;SDS011;14780;48.316;-1.050;2023-09-30T08:27:50;8.57;;;3.95;;
18568;SDS011;14780;48.316;-1.050;2023-09-30T08:30:36;9.07;;;3.95;;
18568;SDS011;14780;48.316;-1.050;2023-09-30T08:33:21;10.10;;;4.22;;
18568;SDS011;14780;48.316;-1.050;2023-09-30T08:36:05;8.68;;;3.92;;
18568;SDS011;14780;48.316;-1.050;2023-09-30T08:38:50;8.63;;;3.97;;
18568;SDS011;14780;48.316;-1.050;2023-09-30T08:41:35;8.90;;;3.92;;
18568;SDS011;14780;48.316;-1.050;2023-09-30T08:44:20;8.48;;;3.88;;
18568;SDS011;14780;48.316;-1.050;2023-09-30T08:47:06;8.77;;;4.25;;
18568;SDS011;14780;48.316;-1.050;2023-09-30T08:49:53;9.10;;;3.88;;
18568;SDS011;14780;48.316;-1.050;2023-09-30T08:52:41;9.27;;;4.20;;
18568;SDS011;14780;48.316;-1.050;2023-09-30T08:55:27;9.98;;;4.18;;
18568;SDS011;14780;48.316;-1.050;2023-09-30T08:58:13;9.35;;;4.13;;
18568;SDS011;14780;48.316;-1.050;2023-09-30T09:00:58;9.20;;;3.97;;
18568;SDS011;14780;48.316;-1.050;2023-09-30T09:03:43;11.40;;;4.40;;
18568;SDS011;14780;48.316;-1.050;2023-09-30T09:06:28;9.57;;;3.90;;
18568;SDS011;14780;48.316;-1.050;2023-09-30T09:09:17;10.32;;;4.32;;
18568;SDS011;14780;48.316;-1.050;2023-09-30T09:12:03;10.00;;;4.38;;
18568;SDS011;14780;48.316;-1.050;2023-09-30T09:14:48;7.57;;;4.20;;
18568;SDS011;14780;48.316;-1.050;2023-09-30T09:17:41;12.60;;;4.50;;
18568;SDS011;14780;48.316;-1.050;2023-09-30T09:20:27;9.40;;;4.72;;
18568;SDS011;14780;48.316;-1.050;2023-09-30T09:23:12;10.77;;;4.00;;
18568;SDS011;14780;48.316;-1.050;2023-09-30T09:25:58;7.80;;;4.13;;
18568;SDS011;14780;48.316;-1.050;2023-09-30T09:28:43;7.47;;;3.80;;
18568;SDS011;14780;48.316;-1.050;2023-09-30T09:31:29;8.68;;;4.22;;
18568;SDS011;14780;48.316;-1.050;2023-09-30T09:34:18;7.63;;;4.05;;
18568;SDS011;14780;48.316;-1.050;2023-09-30T09:37:21;13.45;;;4.65;;
18568;SDS011;14780;48.316;-1.050;2023-09-30T09:40:06;10.60;;;4.00;;
18568;SDS011;14780;48.316;-1.050;2023-09-30T09:42:51;9.30;;;4.45;;
18568;SDS011;14780;48.316;-1.050;2023-09-30T09:45:38;8.13;;;4.05;;
18568;SDS011;14780;48.316;-1.050;2023-09-30T09:48:23;12.30;;;4.33;;
18568;SDS011;14780;48.316;-1.050;2023-09-30T09:51:08;10.37;;;4.20;;
18568;SDS011;14780;48.316;-1.050;2023-09-30T09:53:54;9.55;;;3.97;;
18568;SDS011;14780;48.316;-1.050;2023-09-30T09:56:39;12.13;;;4.25;;
18568;SDS011;14780;48.316;-1.050;2023-09-30T09:59:25;10.30;;;4.35;;
18568;SDS011;14780;48.316;-1.050;2023-09-30T10:02:11;10.43;;;4.60;;
18568;SDS011;14780;48.316;-1.050;2023-09-30T10:04:58;11.02;;;4.35;;
18568;SDS011;14780;48.316;-1.050;2023-09-30T10:10:38;11.90;;;4.35;;
18568;SDS011;14780;48.316;-1.050;2023-09-30T10:19:20;12.95;;;4.60;;
18568;SDS011;14780;48.316;-1.050;2023-09-30T10:25:33;9.98;;;4.10;;
18568;SDS011;14780;48.316;-1.050;2023-09-30T10:31:18;9.25;;;4.13;;
18568;SDS011;14780;48.316;-1.050;2023-09-30T10:36:49;11.38;;;4.43;;
18568;SDS011;14780;48.316;-1.050;2023-09-30T10:42:48;14.13;;;4.65;;
18568;SDS011;14780;48.316;-1.050;2023-09-30T10:51:21;10.32;;;4.63;;
18568;SDS011;14780;48.316;-1.050;2023-09-30T10:54:06;11.02;;;5.03;;
18568;SDS011;14780;48.316;-1.050;2023-09-30T10:56:51;10.10;;;5.22;;
18568;SDS011;14780;48.316;-1.050;2023-09-30T10:59:36;13.90;;;5.63;;
18568;SDS011;14780;48.316;-1.050;2023-09-30T11:02:21;10.93;;;4.70;;
18568;SDS011;14780;48.316;-1.050;2023-09-30T11:05:09;11.23;;;4.77;;
18568;SDS011;14780;48.316;-1.050;2023-09-30T11:07:56;11.73;;;5.13;;
18568;SDS011;14780;48.316;-1.050;2023-09-30T11:10:48;10.20;;;4.90;;
18568;SDS011;14780;48.316;-1.050;2023-09-30T11:13:34;11.68;;;4.85;;
18568;SDS011;14780;48.316;-1.050;2023-09-30T11:16:19;13.97;;;5.70;;
18568;SDS011;14780;48.316;-1.050;2023-09-30T11:19:05;11.15;;;5.47;;
18568;SDS011;14780;48.316;-1.050;2023-09-30T11:21:52;14.27;;;5.87;;
18568;SDS011;14780;48.316;-1.050;2023-09-30T11:24:42;14.52;;;6.03;;
18568;SDS011;14780;48.316;-1.050;2023-09-30T11:27:27;13.18;;;5.65;;
18568;SDS011;14780;48.316;-1.050;2023-09-30T11:30:13;12.40;;;5.57;;
18568;SDS011;14780;48.316;-1.050;2023-09-30T11:32:58;13.90;;;5.53;;
18568;SDS011;14780;48.316;-1.050;2023-09-30T11:36:05;14.40;;;5.88;;
18568;SDS011;14780;48.316;-1.050;2023-09-30T11:38:51;13.88;;;6.35;;
18568;SDS011;14780;48.316;-1.050;2023-09-30T11:41:39;14.37;;;5.87;;
18568;SDS011;14780;48.316;-1.050;2023-09-30T11:44:27;15.25;;;5.75;;
18568;SDS011;14780;48.316;-1.050;2023-09-30T11:47:15;13.88;;;6.30;;
18568;SDS011;14780;48.316;-1.050;2023-09-30T11:50:00;12.80;;;5.38;;
18568;SDS011;14780;48.316;-1.050;2023-09-30T11:52:44;13.13;;;6.10;;
18568;SDS011;14780;48.316;-1.050;2023-09-30T11:55:30;13.35;;;5.60;;
18568;SDS011;14780;48.316;-1.050;2023-09-30T11:58:15;9.32;;;5.05;;
18568;SDS011;14780;48.316;-1.050;2023-09-30T12:01:02;14.15;;;6.18;;
18568;SDS011;14780;48.316;-1.050;2023-09-30T12:03:50;13.65;;;5.55;;
18568;SDS011;14780;48.316;-1.050;2023-09-30T12:06:35;14.73;;;5.75;;
18568;SDS011;14780;48.316;-1.050;2023-09-30T12:09:22;14.15;;;6.25;;
18568;SDS011;14780;48.316;-1.050;2023-09-30T12:12:09;16.33;;;8.38;;
18568;SDS011;14780;48.316;-1.050;2023-09-30T12:14:54;18.30;;;10.40;;
18568;SDS011;14780;48.316;-1.050;2023-09-30T12:17:40;21.00;;;10.20;;
18568;SDS011;14780;48.316;-1.050;2023-09-30T12:20:24;24.73;;;11.73;;
18568;SDS011;14780;48.316;-1.050;2023-09-30T12:23:09;26.63;;;12.15;;
18568;SDS011;14780;48.316;-1.050;2023-09-30T12:25:54;25.77;;;9.80;;
18568;SDS011;14780;48.316;-1.050;2023-09-30T12:28:38;17.63;;;9.20;;
18568;SDS011;14780;48.316;-1.050;2023-09-30T12:31:24;21.52;;;10.20;;
18568;SDS011;14780;48.316;-1.050;2023-09-30T12:34:09;18.55;;;8.63;;
18568;SDS011;14780;48.316;-1.050;2023-09-30T12:36:54;21.33;;;9.57;;
18568;SDS011;14780;48.316;-1.050;2023-09-30T12:39:42;28.67;;;10.13;;
18568;SDS011;14780;48.316;-1.050;2023-09-30T12:42:29;30.63;;;8.93;;
18568;SDS011;14780;48.316;-1.050;2023-09-30T12:45:13;32.15;;;9.40;;
18568;SDS011;14780;48.316;-1.050;2023-09-30T12:47:58;42.60;;;9.80;;
18568;SDS011;14780;48.316;-1.050;2023-09-30T12:50:43;42.72;;;11.10;;
18568;SDS011;14780;48.316;-1.050;2023-09-30T12:53:28;78.68;;;16.23;;
18568;SDS011;14780;48.316;-1.050;2023-09-30T12:56:13;275.33;;;40.15;;
18568;SDS011;14780;48.316;-1.050;2023-09-30T12:58:59;133.20;;;23.50;;
18568;SDS011;14780;48.316;-1.050;2023-09-30T13:01:44;108.07;;;20.00;;
18568;SDS011;14780;48.316;-1.050;2023-09-30T13:04:29;94.35;;;18.98;;
18568;SDS011;14780;48.316;-1.050;2023-09-30T13:07:14;95.82;;;18.08;;
18568;SDS011;14780;48.316;-1.050;2023-09-30T13:09:59;98.33;;;20.13;;
18568;SDS011;14780;48.316;-1.050;2023-09-30T13:12:44;71.93;;;14.38;;
18568;SDS011;14780;48.316;-1.050;2023-09-30T13:15:28;101.60;;;17.43;;
18568;SDS011;14780;48.316;-1.050;2023-09-30T13:18:13;111.63;;;18.65;;
18568;SDS011;14780;48.316;-1.050;2023-09-30T13:20:58;89.53;;;18.50;;
18568;SDS011;14780;48.316;-1.050;2023-09-30T13:23:43;74.72;;;15.73;;
18568;SDS011;14780;48.316;-1.050;2023-09-30T13:26:28;102.25;;;18.77;;
18568;SDS011;14780;48.316;-1.050;2023-09-30T13:29:15;121.50;;;22.55;;
18568;SDS011;14780;48.316;-1.050;2023-09-30T13:32:00;149.43;;;25.17;;
18568;SDS011;14780;48.316;-1.050;2023-09-30T13:34:45;176.77;;;29.57;;
18568;SDS011;14780;48.316;-1.050;2023-09-30T13:37:30;132.05;;;24.00;;
18568;SDS011;14780;48.316;-1.050;2023-09-30T13:40:17;189.88;;;30.75;;
18568;SDS011;14780;48.316;-1.050;2023-09-30T13:43:03;145.55;;;28.13;;
18568;SDS011;14780;48.316;-1.050;2023-09-30T13:45:48;129.07;;;24.80;;
18568;SDS011;14780;48.316;-1.050;2023-09-30T13:48:34;189.95;;;30.67;;
18568;SDS011;14780;48.316;-1.050;2023-09-30T13:51:20;160.50;;;27.48;;
18568;SDS011;14780;48.316;-1.050;2023-09-30T13:54:06;151.50;;;28.33;;
18568;SDS011;14780;48.316;-1.050;2023-09-30T13:56:51;264.63;;;62.45;;
18568;SDS011;14780;48.316;-1.050;2023-09-30T13:59:36;325.98;;;90.72;;
18568;SDS011;14780;48.316;-1.050;2023-09-30T14:02:21;272.90;;;74.20;;
18568;SDS011;14780;48.316;-1.050;2023-09-30T14:05:06;211.43;;;58.42;;
18568;SDS011;14780;48.316;-1.050;2023-09-30T14:07:55;260.27;;;70.40;;
18568;SDS011;14780;48.316;-1.050;2023-09-30T14:10:39;213.52;;;61.72;;
18568;SDS011;14780;48.316;-1.050;2023-09-30T14:13:24;180.35;;;52.15;;
18568;SDS011;14780;48.316;-1.050;2023-09-30T14:16:09;168.82;;;54.53;;
18568;SDS011;14780;48.316;-1.050;2023-09-30T14:18:53;180.00;;;55.00;;
18568;SDS011;14780;48.316;-1.050;2023-09-30T14:21:39;146.20;;;47.08;;
18568;SDS011;14780;48.316;-1.050;2023-09-30T14:24:24;146.37;;;46.87;;
18568;SDS011;14780;48.316;-1.050;2023-09-30T14:27:09;142.32;;;46.70;;
18568;SDS011;14780;48.316;-1.050;2023-09-30T14:29:53;133.90;;;45.67;;
18568;SDS011;14780;48.316;-1.050;2023-09-30T14:32:38;114.33;;;37.27;;
18568;SDS011;14780;48.316;-1.050;2023-09-30T14:35:23;78.90;;;24.83;;
18568;SDS011;14780;48.316;-1.050;2023-09-30T14:38:08;54.05;;;17.33;;
18568;SDS011;14780;48.316;-1.050;2023-09-30T14:40:54;21.88;;;9.18;;
18568;SDS011;14780;48.316;-1.050;2023-09-30T14:43:39;19.25;;;8.82;;
18568;SDS011;14780;48.316;-1.050;2023-09-30T14:46:25;22.58;;;9.00;;
18568;SDS011;14780;48.316;-1.050;2023-09-30T14:49:09;27.27;;;9.35;;
18568;SDS011;14780;48.316;-1.050;2023-09-30T14:51:56;22.08;;;9.57;;
18568;SDS011;14780;48.316;-1.050;2023-09-30T14:54:41;16.13;;;8.52;;
18568;SDS011;14780;48.316;-1.050;2023-09-30T14:57:26;14.38;;;7.30;;
18568;SDS011;14780;48.316;-1.050;2023-09-30T15:00:11;18.20;;;7.57;;
18568;SDS011;14780;48.316;-1.050;2023-09-30T15:02:56;17.10;;;7.78;;
18568;SDS011;14780;48.316;-1.050;2023-09-30T15:05:41;17.47;;;7.63;;
18568;SDS011;14780;48.316;-1.050;2023-09-30T15:08:26;17.17;;;7.60;;
18568;SDS011;14780;48.316;-1.050;2023-09-30T15:11:13;18.08;;;7.60;;
18568;SDS011;14780;48.316;-1.050;2023-09-30T15:13:59;17.58;;;8.15;;
18568;SDS011;14780;48.316;-1.050;2023-09-30T15:16:43;20.38;;;8.10;;
18568;SDS011;14780;48.316;-1.050;2023-09-30T15:19:28;18.57;;;7.50;;
18568;SDS011;14780;48.316;-1.050;2023-09-30T15:22:12;21.05;;;9.48;;
18568;SDS011;14780;48.316;-1.050;2023-09-30T15:24:57;50.00;;;21.67;;
18568;SDS011;14780;48.316;-1.050;2023-09-30T15:27:42;33.85;;;13.95;;
18568;SDS011;14780;48.316;-1.050;2023-09-30T15:30:26;42.40;;;16.83;;
18568;SDS011;14780;48.316;-1.050;2023-09-30T15:33:11;65.97;;;25.63;;
18568;SDS011;14780;48.316;-1.050;2023-09-30T15:35:56;43.30;;;21.30;;
18568;SDS011;14780;48.316;-1.050;2023-09-30T15:38:40;57.65;;;27.30;;
18568;SDS011;14780;48.316;-1.050;2023-09-30T15:41:25;61.35;;;24.20;;
18568;SDS011;14780;48.316;-1.050;2023-09-30T15:44:10;46.35;;;21.90;;
18568;SDS011;14780;48.316;-1.050;2023-09-30T15:46:54;44.08;;;21.00;;
18568;SDS011;14780;48.316;-1.050;2023-09-30T15:49:39;41.63;;;21.15;;
18568;SDS011;14780;48.316;-1.050;2023-09-30T15:52:24;59.95;;;24.33;;
18568;SDS011;14780;48.316;-1.050;2023-09-30T15:55:09;71.10;;;27.13;;
18568;SDS011;14780;48.316;-1.050;2023-09-30T15:57:54;55.30;;;25.30;;
18568;SDS011;14780;48.316;-1.050;2023-09-30T16:00:39;55.00;;;24.98;;
18568;SDS011;14780;48.316;-1.050;2023-09-30T16:03:25;63.40;;;26.92;;
18568;SDS011;14780;48.316;-1.050;2023-09-30T16:06:10;81.68;;;36.50;;
18568;SDS011;14780;48.316;-1.050;2023-09-30T16:08:54;67.50;;;32.27;;
18568;SDS011;14780;48.316;-1.050;2023-09-30T16:11:39;69.68;;;32.70;;
18568;SDS011;14780;48.316;-1.050;2023-09-30T16:14:24;72.43;;;33.50;;
18568;SDS011;14780;48.316;-1.050;2023-09-30T16:17:09;71.60;;;34.60;;
18568;SDS011;14780;48.316;-1.050;2023-09-30T16:19:55;91.75;;;41.90;;
18568;SDS011;14780;48.316;-1.050;2023-09-30T16:22:39;94.80;;;45.80;;
18568;SDS011;14780;48.316;-1.050;2023-09-30T16:25:25;96.60;;;49.57;;
18568;SDS011;14780;48.316;-1.050;2023-09-30T16:28:10;112.47;;;54.03;;
18568;SDS011;14780;48.316;-1.050;2023-09-30T16:30:54;97.90;;;44.22;;
18568;SDS011;14780;48.316;-1.050;2023-09-30T16:33:42;102.97;;;50.70;;
18568;SDS011;14780;48.316;-1.050;2023-09-30T16:36:27;115.68;;;57.42;;
18568;SDS011;14780;48.316;-1.050;2023-09-30T16:39:12;118.67;;;56.93;;